METAR Formatted Surface Weather Observation
Issued by NWS

Home | Current Version | Previous Version | Text Only | Print | Product List | Glossary On
Versions: 1 2 3 4 5 6
000
SAUS42 KTAE 231807
MTR1J0
SPECI K1J0 231806Z AUTO 00000KT 10SM TS FEW045 26/26 A3000 RMK AO2
RAE00 TSB03 P0000 T02560256 $



USA.gov is the U.S. government's official web portal to all federal, state and local government web resources and services.